sensor_id;sensor_type;location;lat;lon;timestamp;P1;durP1;ratioP1;P2;durP2;ratioP2
13250;SDS011;6692;50.710;7.180;2023-01-28T00:01:14;23.50;;;22.10;;
13250;SDS011;6692;50.710;7.180;2023-01-28T00:03:13;22.00;;;20.63;;
13250;SDS011;6692;50.710;7.180;2023-01-28T00:05:14;22.87;;;21.47;;
13250;SDS011;6692;50.710;7.180;2023-01-28T00:07:15;22.33;;;21.00;;
13250;SDS011;6692;50.710;7.180;2023-01-28T00:09:16;27.77;;;26.20;;
13250;SDS011;6692;50.710;7.180;2023-01-28T00:11:16;24.20;;;22.73;;
13250;SDS011;6692;50.710;7.180;2023-01-28T00:13:17;29.70;;;28.07;;
13250;SDS011;6692;50.710;7.180;2023-01-28T00:15:19;25.33;;;23.93;;
13250;SDS011;6692;50.710;7.180;2023-01-28T00:17:19;23.42;;;22.02;;
13250;SDS011;6692;50.710;7.180;2023-01-28T00:19:21;23.77;;;22.37;;
13250;SDS011;6692;50.710;7.180;2023-01-28T00:21:21;24.05;;;22.60;;
13250;SDS011;6692;50.710;7.180;2023-01-28T00:23:22;21.53;;;20.30;;
13250;SDS011;6692;50.710;7.180;2023-01-28T00:25:23;21.33;;;20.03;;
13250;SDS011;6692;50.710;7.180;2023-01-28T00:27:24;22.80;;;21.57;;
13250;SDS011;6692;50.710;7.180;2023-01-28T00:29:24;22.73;;;21.47;;
13250;SDS011;6692;50.710;7.180;2023-01-28T00:31:25;24.37;;;22.97;;
13250;SDS011;6692;50.710;7.180;2023-01-28T00:33:27;24.00;;;22.53;;
13250;SDS011;6692;50.710;7.180;2023-01-28T00:35:28;20.60;;;19.33;;
13250;SDS011;6692;50.710;7.180;2023-01-28T00:37:29;20.43;;;19.20;;
13250;SDS011;6692;50.710;7.180;2023-01-28T00:39:30;21.07;;;19.77;;
13250;SDS011;6692;50.710;7.180;2023-01-28T00:41:31;21.77;;;20.52;;
13250;SDS011;6692;50.710;7.180;2023-01-28T00:43:31;20.50;;;19.30;;
13250;SDS011;6692;50.710;7.180;2023-01-28T00:45:32;22.77;;;21.43;;
13250;SDS011;6692;50.710;7.180;2023-01-28T00:47:33;24.43;;;22.90;;
13250;SDS011;6692;50.710;7.180;2023-01-28T00:49:34;27.03;;;25.40;;
13250;SDS011;6692;50.710;7.180;2023-01-28T00:51:35;26.00;;;24.42;;
13250;SDS011;6692;50.710;7.180;2023-01-28T00:53:36;25.60;;;23.97;;
13250;SDS011;6692;50.710;7.180;2023-01-28T00:55:36;24.07;;;22.63;;
13250;SDS011;6692;50.710;7.180;2023-01-28T00:57:37;25.47;;;23.97;;
13250;SDS011;6692;50.710;7.180;2023-01-28T00:59:38;24.17;;;22.70;;
13250;SDS011;6692;50.710;7.180;2023-01-28T01:01:38;25.27;;;23.77;;
13250;SDS011;6692;50.710;7.180;2023-01-28T01:03:39;24.50;;;22.97;;
13250;SDS011;6692;50.710;7.180;2023-01-28T01:05:40;23.73;;;22.27;;
13250;SDS011;6692;50.710;7.180;2023-01-28T01:07:41;23.87;;;22.47;;
13250;SDS011;6692;50.710;7.180;2023-01-28T01:09:43;23.02;;;21.67;;
13250;SDS011;6692;50.710;7.180;2023-01-28T01:11:43;26.35;;;24.85;;
13250;SDS011;6692;50.710;7.180;2023-01-28T01:13:48;24.60;;;23.10;;
13250;SDS011;6692;50.710;7.180;2023-01-28T01:15:46;23.40;;;22.03;;
13250;SDS011;6692;50.710;7.180;2023-01-28T01:17:47;26.90;;;25.30;;
13250;SDS011;6692;50.710;7.180;2023-01-28T01:19:48;24.17;;;22.83;;
13250;SDS011;6692;50.710;7.180;2023-01-28T01:21:48;22.05;;;20.73;;
13250;SDS011;6692;50.710;7.180;2023-01-28T01:23:50;25.23;;;23.77;;
13250;SDS011;6692;50.710;7.180;2023-01-28T01:25:51;24.57;;;23.00;;
13250;SDS011;6692;50.710;7.180;2023-01-28T01:27:51;23.95;;;22.45;;
13250;SDS011;6692;50.710;7.180;2023-01-28T01:29:53;23.97;;;22.57;;
13250;SDS011;6692;50.710;7.180;2023-01-28T01:31:53;26.50;;;24.98;;
13250;SDS011;6692;50.710;7.180;2023-01-28T01:33:54;23.37;;;22.03;;
13250;SDS011;6692;50.710;7.180;2023-01-28T01:35:55;24.77;;;23.27;;
13250;SDS011;6692;50.710;7.180;2023-01-28T01:37:56;25.43;;;23.97;;
13250;SDS011;6692;50.710;7.180;2023-01-28T01:39:56;24.67;;;23.27;;
13250;SDS011;6692;50.710;7.180;2023-01-28T01:41:57;24.40;;;23.07;;
13250;SDS011;6692;50.710;7.180;2023-01-28T01:43:59;25.30;;;24.07;;
13250;SDS011;6692;50.710;7.180;2023-01-28T01:45:59;24.43;;;23.17;;
13250;SDS011;6692;50.710;7.180;2023-01-28T01:48:03;22.83;;;21.53;;
13250;SDS011;6692;50.710;7.180;2023-01-28T01:50:04;20.88;;;19.67;;
13250;SDS011;6692;50.710;7.180;2023-01-28T01:52:06;20.37;;;19.23;;
13250;SDS011;6692;50.710;7.180;2023-01-28T01:54:04;19.90;;;18.80;;
13250;SDS011;6692;50.710;7.180;2023-01-28T01:56:05;19.33;;;18.27;;
13250;SDS011;6692;50.710;7.180;2023-01-28T01:58:07;22.23;;;21.08;;
13250;SDS011;6692;50.710;7.180;2023-01-28T02:00:08;22.77;;;21.55;;
13250;SDS011;6692;50.710;7.180;2023-01-28T02:02:10;22.30;;;21.02;;
13250;SDS011;6692;50.710;7.180;2023-01-28T02:04:16;20.57;;;19.37;;
13250;SDS011;6692;50.710;7.180;2023-01-28T02:06:15;20.40;;;19.25;;
13250;SDS011;6692;50.710;7.180;2023-01-28T02:08:15;20.20;;;19.10;;
13250;SDS011;6692;50.710;7.180;2023-01-28T02:10:21;18.75;;;17.70;;
13250;SDS011;6692;50.710;7.180;2023-01-28T02:12:23;19.40;;;18.30;;
13250;SDS011;6692;50.710;7.180;2023-01-28T02:14:23;18.40;;;17.40;;
13250;SDS011;6692;50.710;7.180;2023-01-28T02:16:24;17.53;;;16.53;;
13250;SDS011;6692;50.710;7.180;2023-01-28T02:18:24;16.47;;;15.50;;
13250;SDS011;6692;50.710;7.180;2023-01-28T02:20:29;17.53;;;16.53;;
13250;SDS011;6692;50.710;7.180;2023-01-28T02:22:31;16.43;;;15.43;;
13250;SDS011;6692;50.710;7.180;2023-01-28T02:24:42;18.20;;;17.10;;
13250;SDS011;6692;50.710;7.180;2023-01-28T02:26:55;14.82;;;13.93;;
13250;SDS011;6692;50.710;7.180;2023-01-28T02:29:30;17.50;;;16.27;;
13250;SDS011;6692;50.710;7.180;2023-01-28T02:31:17;15.60;;;14.60;;
13250;SDS011;6692;50.710;7.180;2023-01-28T02:33:27;13.30;;;12.40;;
13250;SDS011;6692;50.710;7.180;2023-01-28T02:35:31;14.80;;;13.93;;
13250;SDS011;6692;50.710;7.180;2023-01-28T02:37:33;14.45;;;13.48;;
13250;SDS011;6692;50.710;7.180;2023-01-28T02:39:35;14.50;;;13.60;;
13250;SDS011;6692;50.710;7.180;2023-01-28T02:41:37;14.50;;;13.55;;
13250;SDS011;6692;50.710;7.180;2023-01-28T02:43:39;14.57;;;13.57;;
13250;SDS011;6692;50.710;7.180;2023-01-28T02:45:41;13.40;;;12.48;;
13250;SDS011;6692;50.710;7.180;2023-01-28T02:47:48;13.80;;;12.93;;
13250;SDS011;6692;50.710;7.180;2023-01-28T02:49:55;11.82;;;11.02;;
13250;SDS011;6692;50.710;7.180;2023-01-28T02:52:04;13.33;;;12.43;;
13250;SDS011;6692;50.710;7.180;2023-01-28T02:54:19;10.85;;;9.95;;
13250;SDS011;6692;50.710;7.180;2023-01-28T02:56:22;12.00;;;11.10;;
13250;SDS011;6692;50.710;7.180;2023-01-28T02:58:25;11.70;;;10.90;;
13250;SDS011;6692;50.710;7.180;2023-01-28T03:00:29;13.35;;;12.35;;
13250;SDS011;6692;50.710;7.180;2023-01-28T03:02:45;13.33;;;12.50;;
13250;SDS011;6692;50.710;7.180;2023-01-28T03:04:53;11.57;;;10.68;;
13250;SDS011;6692;50.710;7.180;2023-01-28T03:07:11;9.98;;;9.18;;
13250;SDS011;6692;50.710;7.180;2023-01-28T03:09:11;10.33;;;9.37;;
13250;SDS011;6692;50.710;7.180;2023-01-28T03:11:18;10.68;;;9.77;;
13250;SDS011;6692;50.710;7.180;2023-01-28T03:13:25;10.23;;;9.23;;
13250;SDS011;6692;50.710;7.180;2023-01-28T03:15:33;9.27;;;8.38;;
13250;SDS011;6692;50.710;7.180;2023-01-28T03:17:42;9.30;;;8.40;;
13250;SDS011;6692;50.710;7.180;2023-01-28T03:19:52;10.90;;;8.35;;
13250;SDS011;6692;50.710;7.180;2023-01-28T03:21:59;9.70;;;8.75;;
13250;SDS011;6692;50.710;7.180;2023-01-28T03:24:08;9.07;;;8.27;;
13250;SDS011;6692;50.710;7.180;2023-01-28T03:26:14;10.07;;;9.10;;
13250;SDS011;6692;50.710;7.180;2023-01-28T03:28:21;10.38;;;9.38;;
13250;SDS011;6692;50.710;7.180;2023-01-28T03:30:30;10.77;;;9.60;;
13250;SDS011;6692;50.710;7.180;2023-01-28T03:32:35;9.88;;;8.77;;
13250;SDS011;6692;50.710;7.180;2023-01-28T03:34:43;10.35;;;9.40;;
13250;SDS011;6692;50.710;7.180;2023-01-28T03:36:50;10.38;;;9.38;;
13250;SDS011;6692;50.710;7.180;2023-01-28T03:38:50;10.83;;;9.73;;
13250;SDS011;6692;50.710;7.180;2023-01-28T03:40:52;11.13;;;10.13;;
13250;SDS011;6692;50.710;7.180;2023-01-28T03:42:52;10.63;;;9.67;;
13250;SDS011;6692;50.710;7.180;2023-01-28T03:44:53;10.43;;;9.33;;
13250;SDS011;6692;50.710;7.180;2023-01-28T03:46:53;10.13;;;9.07;;
13250;SDS011;6692;50.710;7.180;2023-01-28T03:48:54;11.03;;;9.97;;
13250;SDS011;6692;50.710;7.180;2023-01-28T03:50:55;9.83;;;8.83;;
13250;SDS011;6692;50.710;7.180;2023-01-28T03:52:56;9.87;;;8.53;;
13250;SDS011;6692;50.710;7.180;2023-01-28T03:54:57;11.10;;;9.45;;
13250;SDS011;6692;50.710;7.180;2023-01-28T03:56:58;10.77;;;9.67;;
13250;SDS011;6692;50.710;7.180;2023-01-28T03:58:58;12.47;;;11.33;;
13250;SDS011;6692;50.710;7.180;2023-01-28T04:00:59;11.33;;;10.23;;
13250;SDS011;6692;50.710;7.180;2023-01-28T04:03:00;11.00;;;9.90;;
13250;SDS011;6692;50.710;7.180;2023-01-28T04:05:01;11.37;;;10.37;;
13250;SDS011;6692;50.710;7.180;2023-01-28T04:07:02;10.43;;;9.50;;
13250;SDS011;6692;50.710;7.180;2023-01-28T04:09:03;10.83;;;9.73;;
13250;SDS011;6692;50.710;7.180;2023-01-28T04:11:04;11.03;;;10.07;;
13250;SDS011;6692;50.710;7.180;2023-01-28T04:13:10;11.27;;;10.27;;
13250;SDS011;6692;50.710;7.180;2023-01-28T04:15:11;9.33;;;8.37;;
13250;SDS011;6692;50.710;7.180;2023-01-28T04:17:16;9.88;;;8.98;;
13250;SDS011;6692;50.710;7.180;2023-01-28T04:19:16;8.70;;;7.90;;
13250;SDS011;6692;50.710;7.180;2023-01-28T04:21:17;9.37;;;8.40;;
13250;SDS011;6692;50.710;7.180;2023-01-28T04:23:18;9.40;;;8.50;;
13250;SDS011;6692;50.710;7.180;2023-01-28T04:25:20;8.98;;;8.13;;
13250;SDS011;6692;50.710;7.180;2023-01-28T04:27:21;9.13;;;8.30;;
13250;SDS011;6692;50.710;7.180;2023-01-28T04:29:21;9.53;;;8.60;;
13250;SDS011;6692;50.710;7.180;2023-01-28T04:31:22;9.43;;;8.53;;
13250;SDS011;6692;50.710;7.180;2023-01-28T04:33:23;8.90;;;7.73;;
13250;SDS011;6692;50.710;7.180;2023-01-28T04:35:24;8.97;;;8.07;;
13250;SDS011;6692;50.710;7.180;2023-01-28T04:37:25;8.63;;;7.82;;
13250;SDS011;6692;50.710;7.180;2023-01-28T04:39:26;10.03;;;8.90;;
13250;SDS011;6692;50.710;7.180;2023-01-28T04:41:26;8.33;;;7.53;;
13250;SDS011;6692;50.710;7.180;2023-01-28T04:43:27;10.17;;;9.27;;
13250;SDS011;6692;50.710;7.180;2023-01-28T04:45:28;10.27;;;9.27;;
13250;SDS011;6692;50.710;7.180;2023-01-28T04:47:29;10.13;;;9.13;;
13250;SDS011;6692;50.710;7.180;2023-01-28T04:49:29;10.50;;;9.37;;
13250;SDS011;6692;50.710;7.180;2023-01-28T04:51:30;11.13;;;10.13;;
13250;SDS011;6692;50.710;7.180;2023-01-28T04:53:31;14.20;;;11.80;;
13250;SDS011;6692;50.710;7.180;2023-01-28T04:55:31;12.30;;;11.03;;
13250;SDS011;6692;50.710;7.180;2023-01-28T04:57:32;14.57;;;12.50;;
13250;SDS011;6692;50.710;7.180;2023-01-28T04:59:33;13.73;;;12.33;;
13250;SDS011;6692;50.710;7.180;2023-01-28T05:01:33;13.67;;;11.97;;
13250;SDS011;6692;50.710;7.180;2023-01-28T05:03:34;13.10;;;11.70;;
13250;SDS011;6692;50.710;7.180;2023-01-28T05:05:35;14.37;;;12.87;;
13250;SDS011;6692;50.710;7.180;2023-01-28T05:07:36;14.93;;;13.00;;
13250;SDS011;6692;50.710;7.180;2023-01-28T05:09:36;15.23;;;12.43;;
13250;SDS011;6692;50.710;7.180;2023-01-28T05:11:37;14.57;;;13.00;;
13250;SDS011;6692;50.710;7.180;2023-01-28T05:13:38;14.30;;;12.80;;
13250;SDS011;6692;50.710;7.180;2023-01-28T05:15:39;15.00;;;13.47;;
13250;SDS011;6692;50.710;7.180;2023-01-28T05:17:40;14.48;;;12.98;;
13250;SDS011;6692;50.710;7.180;2023-01-28T05:19:41;15.43;;;12.87;;
13250;SDS011;6692;50.710;7.180;2023-01-28T05:21:41;13.90;;;12.47;;
13250;SDS011;6692;50.710;7.180;2023-01-28T05:23:42;14.60;;;13.17;;
13250;SDS011;6692;50.710;7.180;2023-01-28T05:25:43;14.07;;;12.57;;
13250;SDS011;6692;50.710;7.180;2023-01-28T05:27:48;12.47;;;11.17;;
13250;SDS011;6692;50.710;7.180;2023-01-28T05:29:44;15.20;;;13.37;;
13250;SDS011;6692;50.710;7.180;2023-01-28T05:31:46;15.90;;;12.47;;
13250;SDS011;6692;50.710;7.180;2023-01-28T05:33:46;15.73;;;13.48;;
13250;SDS011;6692;50.710;7.180;2023-01-28T05:35:47;14.53;;;12.13;;
13250;SDS011;6692;50.710;7.180;2023-01-28T05:37:48;13.77;;;10.83;;
13250;SDS011;6692;50.710;7.180;2023-01-28T05:39:49;14.53;;;11.93;;
13250;SDS011;6692;50.710;7.180;2023-01-28T05:41:50;14.77;;;13.23;;
13250;SDS011;6692;50.710;7.180;2023-01-28T05:43:51;12.90;;;11.52;;
13250;SDS011;6692;50.710;7.180;2023-01-28T05:45:51;12.20;;;10.83;;
13250;SDS011;6692;50.710;7.180;2023-01-28T05:47:52;12.77;;;11.47;;
13250;SDS011;6692;50.710;7.180;2023-01-28T05:49:53;12.70;;;11.47;;
13250;SDS011;6692;50.710;7.180;2023-01-28T05:51:54;13.43;;;12.07;;
13250;SDS011;6692;50.710;7.180;2023-01-28T05:53:55;12.82;;;11.30;;
13250;SDS011;6692;50.710;7.180;2023-01-28T05:55:56;14.30;;;12.57;;
13250;SDS011;6692;50.710;7.180;2023-01-28T05:57:57;13.63;;;11.87;;
13250;SDS011;6692;50.710;7.180;2023-01-28T05:59:59;13.30;;;11.90;;
13250;SDS011;6692;50.710;7.180;2023-01-28T06:02:00;13.93;;;12.52;;
13250;SDS011;6692;50.710;7.180;2023-01-28T06:04:00;13.27;;;11.87;;
13250;SDS011;6692;50.710;7.180;2023-01-28T06:06:01;13.73;;;12.33;;
13250;SDS011;6692;50.710;7.180;2023-01-28T06:08:03;13.20;;;11.80;;
13250;SDS011;6692;50.710;7.180;2023-01-28T06:10:05;13.38;;;12.02;;
13250;SDS011;6692;50.710;7.180;2023-01-28T06:12:06;13.90;;;12.50;;
13250;SDS011;6692;50.710;7.180;2023-01-28T06:14:07;15.70;;;14.20;;
13250;SDS011;6692;50.710;7.180;2023-01-28T06:16:08;15.53;;;14.00;;
13250;SDS011;6692;50.710;7.180;2023-01-28T06:18:09;13.80;;;12.52;;
13250;SDS011;6692;50.710;7.180;2023-01-28T06:20:10;14.83;;;13.33;;
13250;SDS011;6692;50.710;7.180;2023-01-28T06:22:11;15.05;;;13.55;;
13250;SDS011;6692;50.710;7.180;2023-01-28T06:24:12;16.07;;;14.57;;
13250;SDS011;6692;50.710;7.180;2023-01-28T06:26:13;14.77;;;13.00;;
13250;SDS011;6692;50.710;7.180;2023-01-28T06:28:13;15.80;;;14.30;;
13250;SDS011;6692;50.710;7.180;2023-01-28T06:30:14;16.40;;;14.10;;
13250;SDS011;6692;50.710;7.180;2023-01-28T06:32:15;15.98;;;14.27;;
13250;SDS011;6692;50.710;7.180;2023-01-28T06:34:16;15.43;;;13.83;;
13250;SDS011;6692;50.710;7.180;2023-01-28T06:36:17;17.60;;;15.53;;
13250;SDS011;6692;50.710;7.180;2023-01-28T06:38:17;16.33;;;13.87;;
13250;SDS011;6692;50.710;7.180;2023-01-28T06:40:19;14.10;;;12.63;;
13250;SDS011;6692;50.710;7.180;2023-01-28T06:42:20;15.63;;;13.43;;
13250;SDS011;6692;50.710;7.180;2023-01-28T06:44:21;14.47;;;12.97;;
13250;SDS011;6692;50.710;7.180;2023-01-28T06:46:21;16.23;;;14.63;;
13250;SDS011;6692;50.710;7.180;2023-01-28T06:48:22;15.00;;;13.43;;
13250;SDS011;6692;50.710;7.180;2023-01-28T06:50:23;16.83;;;15.13;;
13250;SDS011;6692;50.710;7.180;2023-01-28T06:52:23;14.90;;;13.40;;
13250;SDS011;6692;50.710;7.180;2023-01-28T06:54:24;16.30;;;14.70;;
13250;SDS011;6692;50.710;7.180;2023-01-28T06:56:25;15.43;;;13.83;;
13250;SDS011;6692;50.710;7.180;2023-01-28T06:58:26;14.87;;;13.37;;
13250;SDS011;6692;50.710;7.180;2023-01-28T07:00:26;17.93;;;16.23;;
13250;SDS011;6692;50.710;7.180;2023-01-28T07:02:27;15.87;;;14.27;;
13250;SDS011;6692;50.710;7.180;2023-01-28T07:04:28;15.53;;;14.10;;
13250;SDS011;6692;50.710;7.180;2023-01-28T07:06:29;16.57;;;14.13;;
13250;SDS011;6692;50.710;7.180;2023-01-28T07:08:30;15.50;;;13.98;;
13250;SDS011;6692;50.710;7.180;2023-01-28T07:10:31;14.83;;;13.27;;
13250;SDS011;6692;50.710;7.180;2023-01-28T07:12:32;15.82;;;14.25;;
13250;SDS011;6692;50.710;7.180;2023-01-28T07:14:33;15.60;;;14.07;;
13250;SDS011;6692;50.710;7.180;2023-01-28T07:16:34;16.10;;;14.53;;
13250;SDS011;6692;50.710;7.180;2023-01-28T07:18:35;17.08;;;15.10;;
13250;SDS011;6692;50.710;7.180;2023-01-28T07:20:36;16.93;;;15.23;;
13250;SDS011;6692;50.710;7.180;2023-01-28T07:22:39;15.90;;;14.37;;
13250;SDS011;6692;50.710;7.180;2023-01-28T07:24:38;16.00;;;14.50;;
13250;SDS011;6692;50.710;7.180;2023-01-28T07:26:39;16.23;;;14.73;;
13250;SDS011;6692;50.710;7.180;2023-01-28T07:28:39;16.40;;;14.80;;
13250;SDS011;6692;50.710;7.180;2023-01-28T07:30:40;14.10;;;12.33;;
13250;SDS011;6692;50.710;7.180;2023-01-28T07:32:41;14.30;;;12.93;;
13250;SDS011;6692;50.710;7.180;2023-01-28T07:34:42;16.70;;;15.07;;
13250;SDS011;6692;50.710;7.180;2023-01-28T07:36:43;16.03;;;14.37;;
13250;SDS011;6692;50.710;7.180;2023-01-28T07:38:44;14.73;;;13.27;;
13250;SDS011;6692;50.710;7.180;2023-01-28T07:40:45;15.83;;;14.23;;
13250;SDS011;6692;50.710;7.180;2023-01-28T07:42:46;14.87;;;13.37;;
13250;SDS011;6692;50.710;7.180;2023-01-28T07:44:47;16.62;;;15.13;;
13250;SDS011;6692;50.710;7.180;2023-01-28T07:46:47;16.87;;;15.27;;
13250;SDS011;6692;50.710;7.180;2023-01-28T07:48:48;17.00;;;15.50;;
13250;SDS011;6692;50.710;7.180;2023-01-28T07:50:49;15.73;;;14.20;;
13250;SDS011;6692;50.710;7.180;2023-01-28T07:52:50;16.53;;;15.03;;
13250;SDS011;6692;50.710;7.180;2023-01-28T07:54:51;15.40;;;13.90;;
13250;SDS011;6692;50.710;7.180;2023-01-28T07:56:52;15.80;;;14.30;;
13250;SDS011;6692;50.710;7.180;2023-01-28T07:58:52;17.00;;;15.33;;
13250;SDS011;6692;50.710;7.180;2023-01-28T08:00:56;15.83;;;14.17;;
13250;SDS011;6692;50.710;7.180;2023-01-28T08:02:57;17.12;;;15.63;;
13250;SDS011;6692;50.710;7.180;2023-01-28T08:04:57;17.40;;;15.77;;
13250;SDS011;6692;50.710;7.180;2023-01-28T08:06:57;16.30;;;14.60;;
13250;SDS011;6692;50.710;7.180;2023-01-28T08:08:58;16.37;;;14.67;;
13250;SDS011;6692;50.710;7.180;2023-01-28T08:11:04;17.13;;;15.43;;
13250;SDS011;6692;50.710;7.180;2023-01-28T08:12:59;15.63;;;14.10;;
13250;SDS011;6692;50.710;7.180;2023-01-28T08:15:00;16.80;;;15.13;;
13250;SDS011;6692;50.710;7.180;2023-01-28T08:17:01;16.77;;;15.07;;
13250;SDS011;6692;50.710;7.180;2023-01-28T08:19:01;15.20;;;13.80;;
13250;SDS011;6692;50.710;7.180;2023-01-28T08:21:02;15.33;;;13.83;;
13250;SDS011;6692;50.710;7.180;2023-01-28T08:23:06;15.87;;;14.20;;
13250;SDS011;6692;50.710;7.180;2023-01-28T08:25:08;18.10;;;16.48;;
13250;SDS011;6692;50.710;7.180;2023-01-28T08:27:09;15.67;;;14.00;;
13250;SDS011;6692;50.710;7.180;2023-01-28T08:29:10;16.10;;;14.47;;
13250;SDS011;6692;50.710;7.180;2023-01-28T08:31:11;17.93;;;16.23;;
13250;SDS011;6692;50.710;7.180;2023-01-28T08:33:12;15.73;;;14.23;;
13250;SDS011;6692;50.710;7.180;2023-01-28T08:35:12;15.97;;;14.50;;
13250;SDS011;6692;50.710;7.180;2023-01-28T08:37:13;15.20;;;13.70;;
13250;SDS011;6692;50.710;7.180;2023-01-28T08:39:13;17.13;;;15.60;;
13250;SDS011;6692;50.710;7.180;2023-01-28T08:41:14;17.87;;;16.27;;
13250;SDS011;6692;50.710;7.180;2023-01-28T08:43:15;19.73;;;17.93;;
13250;SDS011;6692;50.710;7.180;2023-01-28T08:45:16;17.77;;;16.20;;
13250;SDS011;6692;50.710;7.180;2023-01-28T08:47:17;18.73;;;17.12;;
13250;SDS011;6692;50.710;7.180;2023-01-28T08:49:18;17.53;;;16.10;;
13250;SDS011;6692;50.710;7.180;2023-01-28T08:51:18;16.93;;;15.53;;
13250;SDS011;6692;50.710;7.180;2023-01-28T08:53:20;17.50;;;16.00;;
13250;SDS011;6692;50.710;7.180;2023-01-28T08:55:20;18.45;;;17.02;;
13250;SDS011;6692;50.710;7.180;2023-01-28T08:57:21;17.30;;;15.87;;
13250;SDS011;6692;50.710;7.180;2023-01-28T08:59:22;16.67;;;15.20;;
13250;SDS011;6692;50.710;7.180;2023-01-28T09:01:23;17.40;;;15.80;;
13250;SDS011;6692;50.710;7.180;2023-01-28T09:03:23;16.87;;;15.37;;
13250;SDS011;6692;50.710;7.180;2023-01-28T09:05:24;14.40;;;13.00;;
13250;SDS011;6692;50.710;7.180;2023-01-28T09:07:25;13.20;;;12.07;;
13250;SDS011;6692;50.710;7.180;2023-01-28T09:09:26;14.13;;;12.77;;
13250;SDS011;6692;50.710;7.180;2023-01-28T09:11:27;17.00;;;15.43;;
13250;SDS011;6692;50.710;7.180;2023-01-28T09:13:28;17.15;;;15.65;;
13250;SDS011;6692;50.710;7.180;2023-01-28T09:15:28;16.77;;;15.37;;
13250;SDS011;6692;50.710;7.180;2023-01-28T09:17:29;16.77;;;15.27;;
13250;SDS011;6692;50.710;7.180;2023-01-28T09:19:30;20.30;;;18.73;;
13250;SDS011;6692;50.710;7.180;2023-01-28T09:21:31;17.73;;;16.20;;
13250;SDS011;6692;50.710;7.180;2023-01-28T09:23:33;16.75;;;15.32;;
13250;SDS011;6692;50.710;7.180;2023-01-28T09:25:33;18.97;;;17.57;;
13250;SDS011;6692;50.710;7.180;2023-01-28T09:27:34;18.97;;;17.27;;
13250;SDS011;6692;50.710;7.180;2023-01-28T09:29:35;17.20;;;15.60;;
13250;SDS011;6692;50.710;7.180;2023-01-28T09:31:36;15.45;;;14.05;;
13250;SDS011;6692;50.710;7.180;2023-01-28T09:33:38;16.27;;;14.77;;
13250;SDS011;6692;50.710;7.180;2023-01-28T09:35:39;15.75;;;14.25;;
13250;SDS011;6692;50.710;7.180;2023-01-28T09:37:39;12.70;;;11.40;;
13250;SDS011;6692;50.710;7.180;2023-01-28T09:39:41;14.63;;;13.33;;
13250;SDS011;6692;50.710;7.180;2023-01-28T09:41:48;14.87;;;13.38;;
13250;SDS011;6692;50.710;7.180;2023-01-28T09:43:57;14.77;;;13.20;;
13250;SDS011;6692;50.710;7.180;2023-01-28T09:45:59;14.07;;;12.65;;
13250;SDS011;6692;50.710;7.180;2023-01-28T09:48:00;15.07;;;13.65;;
13250;SDS011;6692;50.710;7.180;2023-01-28T09:50:02;14.47;;;13.07;;
13250;SDS011;6692;50.710;7.180;2023-01-28T09:52:01;14.43;;;13.03;;
13250;SDS011;6692;50.710;7.180;2023-01-28T09:54:04;15.10;;;13.70;;
13250;SDS011;6692;50.710;7.180;2023-01-28T09:56:04;16.00;;;14.60;;
13250;SDS011;6692;50.710;7.180;2023-01-28T09:58:07;13.60;;;12.20;;
13250;SDS011;6692;50.710;7.180;2023-01-28T10:00:11;14.20;;;12.80;;
13250;SDS011;6692;50.710;7.180;2023-01-28T10:02:16;13.52;;;12.02;;
13250;SDS011;6692;50.710;7.180;2023-01-28T10:04:19;13.38;;;12.07;;
13250;SDS011;6692;50.710;7.180;2023-01-28T10:07:15;13.13;;;11.82;;
13250;SDS011;6692;50.710;7.180;2023-01-28T10:09:02;13.40;;;12.10;;
13250;SDS011;6692;50.710;7.180;2023-01-28T10:11:07;14.25;;;12.85;;
13250;SDS011;6692;50.710;7.180;2023-01-28T10:13:23;14.40;;;13.00;;
13250;SDS011;6692;50.710;7.180;2023-01-28T10:17:44;11.65;;;10.52;;
13250;SDS011;6692;50.710;7.180;2023-01-28T10:19:47;14.68;;;13.23;;
13250;SDS011;6692;50.710;7.180;2023-01-28T10:21:50;12.80;;;11.60;;
13250;SDS011;6692;50.710;7.180;2023-01-28T10:23:54;12.68;;;11.57;;
13250;SDS011;6692;50.710;7.180;2023-01-28T10:25:52;13.43;;;12.13;;
13250;SDS011;6692;50.710;7.180;2023-01-28T10:27:52;12.53;;;11.33;;
13250;SDS011;6692;50.710;7.180;2023-01-28T10:29:53;12.97;;;11.67;;
13250;SDS011;6692;50.710;7.180;2023-01-28T10:34:16;12.50;;;11.25;;
13250;SDS011;6692;50.710;7.180;2023-01-28T10:36:16;12.07;;;10.87;;
13250;SDS011;6692;50.710;7.180;2023-01-28T10:38:19;11.97;;;10.77;;
13250;SDS011;6692;50.710;7.180;2023-01-28T10:40:19;12.68;;;11.38;;
13250;SDS011;6692;50.710;7.180;2023-01-28T10:42:25;13.90;;;12.53;;
13250;SDS011;6692;50.710;7.180;2023-01-28T10:44:34;13.70;;;12.40;;
13250;SDS011;6692;50.710;7.180;2023-01-28T10:46:33;14.10;;;12.80;;
13250;SDS011;6692;50.710;7.180;2023-01-28T10:51:08;13.57;;;12.18;;
13250;SDS011;6692;50.710;7.180;2023-01-28T10:53:09;13.85;;;12.60;;
13250;SDS011;6692;50.710;7.180;2023-01-28T10:55:13;13.10;;;11.70;;
13250;SDS011;6692;50.710;7.180;2023-01-28T10:57:12;11.47;;;10.33;;
13250;SDS011;6692;50.710;7.180;2023-01-28T10:59:18;13.45;;;12.13;;
13250;SDS011;6692;50.710;7.180;2023-01-28T11:01:17;12.65;;;11.32;;
13250;SDS011;6692;50.710;7.180;2023-01-28T11:03:18;12.57;;;11.27;;
13250;SDS011;6692;50.710;7.180;2023-01-28T11:05:21;11.90;;;10.77;;
13250;SDS011;6692;50.710;7.180;2023-01-28T11:07:20;11.35;;;10.15;;
13250;SDS011;6692;50.710;7.180;2023-01-28T11:09:22;11.63;;;10.43;;
13250;SDS011;6692;50.710;7.180;2023-01-28T11:11:23;12.87;;;11.57;;
13250;SDS011;6692;50.710;7.180;2023-01-28T11:13:25;12.95;;;11.73;;
13250;SDS011;6692;50.710;7.180;2023-01-28T11:15:25;11.20;;;9.63;;
13250;SDS011;6692;50.710;7.180;2023-01-28T11:17:28;12.07;;;10.77;;
13250;SDS011;6692;50.710;7.180;2023-01-28T11:19:34;11.40;;;10.27;;
13250;SDS011;6692;50.710;7.180;2023-01-28T11:21:31;11.93;;;10.82;;
13250;SDS011;6692;50.710;7.180;2023-01-28T11:23:33;13.67;;;12.33;;
13250;SDS011;6692;50.710;7.180;2023-01-28T11:25:33;11.13;;;10.00;;
13250;SDS011;6692;50.710;7.180;2023-01-28T11:27:34;11.80;;;10.67;;
13250;SDS011;6692;50.710;7.180;2023-01-28T11:29:37;12.23;;;10.85;;
13250;SDS011;6692;50.710;7.180;2023-01-28T11:31:38;13.07;;;11.87;;
13250;SDS011;6692;50.710;7.180;2023-01-28T11:33:38;11.70;;;10.50;;
13250;SDS011;6692;50.710;7.180;2023-01-28T11:35:39;12.27;;;11.07;;
13250;SDS011;6692;50.710;7.180;2023-01-28T11:37:40;12.13;;;10.95;;
13250;SDS011;6692;50.710;7.180;2023-01-28T11:39:40;13.30;;;12.13;;
13250;SDS011;6692;50.710;7.180;2023-01-28T11:41:42;15.47;;;14.13;;
13250;SDS011;6692;50.710;7.180;2023-01-28T11:43:43;13.70;;;12.50;;
13250;SDS011;6692;50.710;7.180;2023-01-28T11:45:49;11.77;;;10.65;;
13250;SDS011;6692;50.710;7.180;2023-01-28T11:47:56;11.40;;;10.35;;
13250;SDS011;6692;50.710;7.180;2023-01-28T11:51:03;13.13;;;11.90;;
13250;SDS011;6692;50.710;7.180;2023-01-28T11:52:39;11.93;;;10.80;;
13250;SDS011;6692;50.710;7.180;2023-01-28T11:54:56;11.48;;;9.93;;
13250;SDS011;6692;50.710;7.180;2023-01-28T11:57:34;11.07;;;9.98;;
13250;SDS011;6692;50.710;7.180;2023-01-28T11:59:28;12.60;;;11.40;;
13250;SDS011;6692;50.710;7.180;2023-01-28T12:03:54;11.70;;;10.63;;
13250;SDS011;6692;50.710;7.180;2023-01-28T12:06:46;11.63;;;10.43;;
13250;SDS011;6692;50.710;7.180;2023-01-28T12:08:33;12.18;;;10.77;;
13250;SDS011;6692;50.710;7.180;2023-01-28T12:10:34;10.45;;;9.38;;
13250;SDS011;6692;50.710;7.180;2023-01-28T12:12:42;10.32;;;9.23;;
13250;SDS011;6692;50.710;7.180;2023-01-28T12:14:52;9.82;;;8.82;;
13250;SDS011;6692;50.710;7.180;2023-01-28T12:17:25;11.85;;;10.48;;
13250;SDS011;6692;50.710;7.180;2023-01-28T12:21:26;12.37;;;9.93;;